sensor_id;sensor_type;location;lat;lon;timestamp;P1;durP1;ratioP1;P2;durP2;ratioP2
9409;SDS011;4744;52.576;13.568;2023-03-24T00:00:57;3.10;;;2.40;;
9409;SDS011;4744;52.576;13.568;2023-03-24T00:03:25;3.42;;;2.70;;
9409;SDS011;4744;52.576;13.568;2023-03-24T00:05:55;2.85;;;2.65;;
9409;SDS011;4744;52.576;13.568;2023-03-24T00:08:25;3.30;;;2.65;;
9409;SDS011;4744;52.576;13.568;2023-03-24T00:10:56;3.13;;;2.58;;
9409;SDS011;4744;52.576;13.568;2023-03-24T00:13:25;3.45;;;2.53;;
9409;SDS011;4744;52.576;13.568;2023-03-24T00:15:52;3.50;;;2.63;;
9409;SDS011;4744;52.576;13.568;2023-03-24T00:18:19;2.97;;;2.78;;
9409;SDS011;4744;52.576;13.568;2023-03-24T00:20:50;3.55;;;2.20;;
9409;SDS011;4744;52.576;13.568;2023-03-24T00:23:23;2.67;;;2.47;;
9409;SDS011;4744;52.576;13.568;2023-03-24T00:25:57;2.47;;;2.22;;
9409;SDS011;4744;52.576;13.568;2023-03-24T00:28:27;2.50;;;2.30;;
9409;SDS011;4744;52.576;13.568;2023-03-24T00:30:55;2.40;;;2.20;;
9409;SDS011;4744;52.576;13.568;2023-03-24T00:33:23;3.58;;;2.50;;
9409;SDS011;4744;52.576;13.568;2023-03-24T00:35:50;2.40;;;2.20;;
9409;SDS011;4744;52.576;13.568;2023-03-24T00:38:18;2.60;;;2.40;;
9409;SDS011;4744;52.576;13.568;2023-03-24T00:40:47;2.55;;;2.35;;
9409;SDS011;4744;52.576;13.568;2023-03-24T00:43:15;2.53;;;2.33;;
9409;SDS011;4744;52.576;13.568;2023-03-24T00:45:43;2.40;;;2.20;;
9409;SDS011;4744;52.576;13.568;2023-03-24T00:48:11;2.72;;;2.20;;
9409;SDS011;4744;52.576;13.568;2023-03-24T00:50:38;2.30;;;2.10;;
9409;SDS011;4744;52.576;13.568;2023-03-24T00:53:06;2.05;;;1.95;;
9409;SDS011;4744;52.576;13.568;2023-03-24T00:55:34;2.85;;;2.22;;
9409;SDS011;4744;52.576;13.568;2023-03-24T00:58:03;3.20;;;2.00;;
9409;SDS011;4744;52.576;13.568;2023-03-24T01:00:30;2.00;;;1.90;;
9409;SDS011;4744;52.576;13.568;2023-03-24T01:02:57;2.10;;;1.95;;
9409;SDS011;4744;52.576;13.568;2023-03-24T01:05:29;3.08;;;2.17;;
9409;SDS011;4744;52.576;13.568;2023-03-24T01:07:57;2.25;;;2.05;;
9409;SDS011;4744;52.576;13.568;2023-03-24T01:10:27;2.20;;;2.00;;
9409;SDS011;4744;52.576;13.568;2023-03-24T01:12:56;2.30;;;2.10;;
9409;SDS011;4744;52.576;13.568;2023-03-24T01:15:26;2.10;;;1.95;;
9409;SDS011;4744;52.576;13.568;2023-03-24T01:17:55;2.28;;;1.90;;
9409;SDS011;4744;52.576;13.568;2023-03-24T01:20:26;2.30;;;2.10;;
9409;SDS011;4744;52.576;13.568;2023-03-24T01:22:57;2.22;;;2.00;;
9409;SDS011;4744;52.576;13.568;2023-03-24T01:25:24;2.20;;;1.98;;
9409;SDS011;4744;52.576;13.568;2023-03-24T01:27:52;2.38;;;2.17;;
9409;SDS011;4744;52.576;13.568;2023-03-24T01:30:20;2.45;;;1.80;;
9409;SDS011;4744;52.576;13.568;2023-03-24T01:32:50;2.30;;;2.10;;
9409;SDS011;4744;52.576;13.568;2023-03-24T01:35:18;2.63;;;2.28;;
9409;SDS011;4744;52.576;13.568;2023-03-24T01:37:46;2.00;;;1.90;;
9409;SDS011;4744;52.576;13.568;2023-03-24T01:40:15;1.90;;;1.80;;
9409;SDS011;4744;52.576;13.568;2023-03-24T01:42:44;1.98;;;1.88;;
9409;SDS011;4744;52.576;13.568;2023-03-24T01:48:21;2.10;;;1.98;;
9409;SDS011;4744;52.576;13.568;2023-03-24T01:50:53;1.90;;;1.80;;
9409;SDS011;4744;52.576;13.568;2023-03-24T01:53:23;1.95;;;1.85;;
9409;SDS011;4744;52.576;13.568;2023-03-24T01:55:51;1.80;;;1.70;;
9409;SDS011;4744;52.576;13.568;2023-03-24T01:58:21;2.30;;;2.10;;
9409;SDS011;4744;52.576;13.568;2023-03-24T02:00:49;2.00;;;1.90;;
9409;SDS011;4744;52.576;13.568;2023-03-24T02:03:17;2.08;;;1.98;;
9409;SDS011;4744;52.576;13.568;2023-03-24T02:05:48;2.13;;;1.98;;
9409;SDS011;4744;52.576;13.568;2023-03-24T02:08:19;2.38;;;2.00;;
9409;SDS011;4744;52.576;13.568;2023-03-24T02:10:51;2.00;;;1.90;;
9409;SDS011;4744;52.576;13.568;2023-03-24T02:13:20;2.33;;;2.15;;
9409;SDS011;4744;52.576;13.568;2023-03-24T02:15:52;2.30;;;2.05;;
9409;SDS011;4744;52.576;13.568;2023-03-24T02:18:29;1.90;;;1.80;;
9409;SDS011;4744;52.576;13.568;2023-03-24T02:24:15;1.83;;;1.73;;
9409;SDS011;4744;52.576;13.568;2023-03-24T02:27:04;2.05;;;1.95;;
9409;SDS011;4744;52.576;13.568;2023-03-24T02:29:43;2.33;;;2.10;;
9409;SDS011;4744;52.576;13.568;2023-03-24T02:42:03;2.28;;;2.10;;
9409;SDS011;4744;52.576;13.568;2023-03-24T02:44:38;2.15;;;2.00;;
9409;SDS011;4744;52.576;13.568;2023-03-24T02:47:16;2.10;;;2.00;;
9409;SDS011;4744;52.576;13.568;2023-03-24T02:49:47;2.15;;;1.90;;
9409;SDS011;4744;52.576;13.568;2023-03-24T02:52:21;2.38;;;2.03;;
9409;SDS011;4744;52.576;13.568;2023-03-24T02:54:58;1.95;;;1.85;;
9409;SDS011;4744;52.576;13.568;2023-03-24T02:57:28;2.75;;;2.10;;
9409;SDS011;4744;52.576;13.568;2023-03-24T02:59:58;1.90;;;1.80;;
9409;SDS011;4744;52.576;13.568;2023-03-24T03:02:32;2.05;;;1.90;;
9409;SDS011;4744;52.576;13.568;2023-03-24T03:05:03;1.88;;;1.77;;
9409;SDS011;4744;52.576;13.568;2023-03-24T03:07:38;2.00;;;1.90;;
9409;SDS011;4744;52.576;13.568;2023-03-24T03:10:10;2.30;;;2.10;;
9409;SDS011;4744;52.576;13.568;2023-03-24T03:12:41;2.72;;;2.08;;
9409;SDS011;4744;52.576;13.568;2023-03-24T03:15:12;2.20;;;2.00;;
9409;SDS011;4744;52.576;13.568;2023-03-24T03:17:45;3.20;;;2.25;;
9409;SDS011;4744;52.576;13.568;2023-03-24T03:20:15;3.38;;;2.25;;
9409;SDS011;4744;52.576;13.568;2023-03-24T03:22:46;2.30;;;2.17;;
9409;SDS011;4744;52.576;13.568;2023-03-24T03:25:20;2.58;;;2.15;;
9409;SDS011;4744;52.576;13.568;2023-03-24T03:27:50;2.40;;;2.20;;
9409;SDS011;4744;52.576;13.568;2023-03-24T03:30:21;2.13;;;2.00;;
9409;SDS011;4744;52.576;13.568;2023-03-24T03:32:53;2.15;;;1.95;;
9409;SDS011;4744;52.576;13.568;2023-03-24T03:35:23;3.50;;;2.22;;
9409;SDS011;4744;52.576;13.568;2023-03-24T03:37:55;2.38;;;2.10;;
9409;SDS011;4744;52.576;13.568;2023-03-24T03:40:30;3.17;;;2.28;;
9409;SDS011;4744;52.576;13.568;2023-03-24T03:43:00;2.67;;;2.28;;
9409;SDS011;4744;52.576;13.568;2023-03-24T03:45:28;2.08;;;1.90;;
9409;SDS011;4744;52.576;13.568;2023-03-24T03:47:55;3.17;;;2.30;;
9409;SDS011;4744;52.576;13.568;2023-03-24T03:50:22;2.10;;;2.00;;
9409;SDS011;4744;52.576;13.568;2023-03-24T03:52:49;4.53;;;2.47;;
9409;SDS011;4744;52.576;13.568;2023-03-24T03:55:17;2.25;;;2.05;;
9409;SDS011;4744;52.576;13.568;2023-03-24T03:57:46;2.35;;;2.22;;
9409;SDS011;4744;52.576;13.568;2023-03-24T04:00:14;2.33;;;2.13;;
9409;SDS011;4744;52.576;13.568;2023-03-24T04:02:48;2.50;;;2.30;;
9409;SDS011;4744;52.576;13.568;2023-03-24T04:05:32;2.30;;;2.20;;
9409;SDS011;4744;52.576;13.568;2023-03-24T04:08:16;2.38;;;2.17;;
9409;SDS011;4744;52.576;13.568;2023-03-24T04:13:51;2.60;;;2.40;;
9409;SDS011;4744;52.576;13.568;2023-03-24T04:16:31;2.70;;;2.50;;
9409;SDS011;4744;52.576;13.568;2023-03-24T04:19:10;2.67;;;2.35;;
9409;SDS011;4744;52.576;13.568;2023-03-24T04:21:49;3.42;;;2.40;;
9409;SDS011;4744;52.576;13.568;2023-03-24T04:24:36;2.75;;;2.45;;
9409;SDS011;4744;52.576;13.568;2023-03-24T04:27:10;3.55;;;2.47;;
9409;SDS011;4744;52.576;13.568;2023-03-24T04:29:43;2.72;;;2.53;;
9409;SDS011;4744;52.576;13.568;2023-03-24T04:32:18;3.00;;;2.70;;
9409;SDS011;4744;52.576;13.568;2023-03-24T04:34:52;2.75;;;2.53;;
9409;SDS011;4744;52.576;13.568;2023-03-24T04:37:27;2.80;;;2.60;;
9409;SDS011;4744;52.576;13.568;2023-03-24T04:39:57;2.90;;;2.70;;
9409;SDS011;4744;52.576;13.568;2023-03-24T04:42:27;3.30;;;3.00;;
9409;SDS011;4744;52.576;13.568;2023-03-24T04:45:01;3.03;;;2.75;;
9409;SDS011;4744;52.576;13.568;2023-03-24T04:47:31;3.00;;;2.80;;
9409;SDS011;4744;52.576;13.568;2023-03-24T04:50:03;3.88;;;2.83;;
9409;SDS011;4744;52.576;13.568;2023-03-24T04:52:35;4.22;;;2.97;;
9409;SDS011;4744;52.576;13.568;2023-03-24T04:55:02;4.82;;;2.80;;
9409;SDS011;4744;52.576;13.568;2023-03-24T04:57:43;3.47;;;3.05;;
9409;SDS011;4744;52.576;13.568;2023-03-24T05:00:12;3.55;;;3.25;;
9409;SDS011;4744;52.576;13.568;2023-03-24T05:02:41;3.65;;;2.90;;
9409;SDS011;4744;52.576;13.568;2023-03-24T05:05:10;3.30;;;3.00;;
9409;SDS011;4744;52.576;13.568;2023-03-24T05:07:37;3.95;;;3.28;;
9409;SDS011;4744;52.576;13.568;2023-03-24T05:10:04;5.90;;;3.05;;
9409;SDS011;4744;52.576;13.568;2023-03-24T05:12:32;4.18;;;3.28;;
9409;SDS011;4744;52.576;13.568;2023-03-24T05:14:58;4.20;;;3.65;;
9409;SDS011;4744;52.576;13.568;2023-03-24T05:17:27;3.63;;;3.35;;
9409;SDS011;4744;52.576;13.568;2023-03-24T05:19:54;4.55;;;3.65;;
9409;SDS011;4744;52.576;13.568;2023-03-24T05:22:21;3.72;;;3.42;;
9409;SDS011;4744;52.576;13.568;2023-03-24T05:24:48;4.63;;;3.40;;
9409;SDS011;4744;52.576;13.568;2023-03-24T05:27:15;4.47;;;3.70;;
9409;SDS011;4744;52.576;13.568;2023-03-24T05:29:41;3.72;;;3.42;;
9409;SDS011;4744;52.576;13.568;2023-03-24T05:32:08;3.60;;;3.30;;
9409;SDS011;4744;52.576;13.568;2023-03-24T05:34:38;3.60;;;3.30;;
9409;SDS011;4744;52.576;13.568;2023-03-24T05:37:05;4.13;;;3.72;;
9409;SDS011;4744;52.576;13.568;2023-03-24T05:39:36;4.10;;;3.70;;
9409;SDS011;4744;52.576;13.568;2023-03-24T05:42:03;3.88;;;3.58;;
9409;SDS011;4744;52.576;13.568;2023-03-24T05:44:30;4.13;;;3.63;;
9409;SDS011;4744;52.576;13.568;2023-03-24T05:46:56;6.35;;;3.83;;
9409;SDS011;4744;52.576;13.568;2023-03-24T05:49:23;6.70;;;3.97;;
9409;SDS011;4744;52.576;13.568;2023-03-24T05:51:51;5.80;;;3.88;;
9409;SDS011;4744;52.576;13.568;2023-03-24T05:54:20;3.95;;;3.55;;
9409;SDS011;4744;52.576;13.568;2023-03-24T05:56:48;4.32;;;3.92;;
9409;SDS011;4744;52.576;13.568;2023-03-24T05:59:15;4.13;;;3.72;;
9409;SDS011;4744;52.576;13.568;2023-03-24T06:01:42;4.00;;;3.60;;
9409;SDS011;4744;52.576;13.568;2023-03-24T06:04:09;3.58;;;3.28;;
9409;SDS011;4744;52.576;13.568;2023-03-24T06:06:38;3.92;;;3.50;;
9409;SDS011;4744;52.576;13.568;2023-03-24T06:09:06;3.67;;;3.38;;
9409;SDS011;4744;52.576;13.568;2023-03-24T06:11:33;3.60;;;3.30;;
9409;SDS011;4744;52.576;13.568;2023-03-24T06:14:00;3.60;;;3.30;;
9409;SDS011;4744;52.576;13.568;2023-03-24T06:16:27;5.05;;;3.15;;
9409;SDS011;4744;52.576;13.568;2023-03-24T06:18:54;5.00;;;3.50;;
9409;SDS011;4744;52.576;13.568;2023-03-24T06:21:21;3.95;;;2.97;;
9409;SDS011;4744;52.576;13.568;2023-03-24T06:23:55;3.70;;;3.13;;
9409;SDS011;4744;52.576;13.568;2023-03-24T06:26:24;3.40;;;3.10;;
9409;SDS011;4744;52.576;13.568;2023-03-24T06:28:54;3.20;;;3.00;;
9409;SDS011;4744;52.576;13.568;2023-03-24T06:31:22;3.53;;;3.22;;
9409;SDS011;4744;52.576;13.568;2023-03-24T06:33:53;3.08;;;2.88;;
9409;SDS011;4744;52.576;13.568;2023-03-24T06:36:20;3.53;;;3.22;;
9409;SDS011;4744;52.576;13.568;2023-03-24T06:38:49;3.38;;;2.80;;
9409;SDS011;4744;52.576;13.568;2023-03-24T06:41:16;3.40;;;3.15;;
9409;SDS011;4744;52.576;13.568;2023-03-24T06:43:45;3.25;;;3.00;;
9409;SDS011;4744;52.576;13.568;2023-03-24T06:46:11;3.10;;;2.80;;
9409;SDS011;4744;52.576;13.568;2023-03-24T06:48:38;3.38;;;3.08;;
9409;SDS011;4744;52.576;13.568;2023-03-24T06:51:06;3.30;;;2.70;;
9409;SDS011;4744;52.576;13.568;2023-03-24T06:53:33;3.13;;;2.92;;
9409;SDS011;4744;52.576;13.568;2023-03-24T06:55:59;3.08;;;2.78;;
9409;SDS011;4744;52.576;13.568;2023-03-24T06:58:26;3.90;;;3.15;;
9409;SDS011;4744;52.576;13.568;2023-03-24T07:00:55;3.58;;;3.20;;
9409;SDS011;4744;52.576;13.568;2023-03-24T07:03:25;3.38;;;3.08;;
9409;SDS011;4744;52.576;13.568;2023-03-24T07:05:52;4.25;;;2.70;;
9409;SDS011;4744;52.576;13.568;2023-03-24T07:08:19;3.05;;;2.78;;
9409;SDS011;4744;52.576;13.568;2023-03-24T07:10:46;2.88;;;2.55;;
9409;SDS011;4744;52.576;13.568;2023-03-24T07:13:13;2.92;;;2.67;;
9409;SDS011;4744;52.576;13.568;2023-03-24T07:15:40;3.00;;;2.80;;
9409;SDS011;4744;52.576;13.568;2023-03-24T07:18:08;3.63;;;2.90;;
9409;SDS011;4744;52.576;13.568;2023-03-24T07:20:35;2.90;;;2.70;;
9409;SDS011;4744;52.576;13.568;2023-03-24T07:23:03;3.47;;;3.10;;
9409;SDS011;4744;52.576;13.568;2023-03-24T07:25:30;2.88;;;2.60;;
9409;SDS011;4744;52.576;13.568;2023-03-24T07:27:57;3.08;;;2.83;;
9409;SDS011;4744;52.576;13.568;2023-03-24T07:30:24;2.60;;;2.40;;
9409;SDS011;4744;52.576;13.568;2023-03-24T07:32:51;3.15;;;2.85;;
9409;SDS011;4744;52.576;13.568;2023-03-24T07:35:22;3.13;;;2.83;;
9409;SDS011;4744;52.576;13.568;2023-03-24T07:37:48;3.63;;;2.75;;
9409;SDS011;4744;52.576;13.568;2023-03-24T07:40:18;3.67;;;2.95;;
9409;SDS011;4744;52.576;13.568;2023-03-24T07:42:46;2.92;;;2.70;;
9409;SDS011;4744;52.576;13.568;2023-03-24T07:45:13;3.33;;;3.10;;
9409;SDS011;4744;52.576;13.568;2023-03-24T07:47:41;3.00;;;2.80;;
9409;SDS011;4744;52.576;13.568;2023-03-24T07:50:09;3.30;;;3.00;;
9409;SDS011;4744;52.576;13.568;2023-03-24T07:52:39;3.40;;;3.10;;
9409;SDS011;4744;52.576;13.568;2023-03-24T07:55:09;4.68;;;3.00;;
9409;SDS011;4744;52.576;13.568;2023-03-24T07:57:36;3.08;;;2.70;;
9409;SDS011;4744;52.576;13.568;2023-03-24T08:00:06;3.20;;;2.90;;
9409;SDS011;4744;52.576;13.568;2023-03-24T08:02:39;2.60;;;2.40;;
9409;SDS011;4744;52.576;13.568;2023-03-24T08:05:06;2.80;;;2.60;;
9409;SDS011;4744;52.576;13.568;2023-03-24T08:07:39;2.70;;;2.50;;
9409;SDS011;4744;52.576;13.568;2023-03-24T08:10:07;3.38;;;2.97;;
9409;SDS011;4744;52.576;13.568;2023-03-24T08:12:35;3.42;;;3.13;;
9409;SDS011;4744;52.576;13.568;2023-03-24T08:15:02;3.10;;;2.90;;
9409;SDS011;4744;52.576;13.568;2023-03-24T08:17:30;3.00;;;2.80;;
9409;SDS011;4744;52.576;13.568;2023-03-24T08:19:57;2.70;;;2.47;;
9409;SDS011;4744;52.576;13.568;2023-03-24T08:22:24;3.90;;;2.95;;
9409;SDS011;4744;52.576;13.568;2023-03-24T08:24:52;4.75;;;3.03;;
9409;SDS011;4744;52.576;13.568;2023-03-24T08:27:19;3.10;;;2.90;;
9409;SDS011;4744;52.576;13.568;2023-03-24T08:29:46;3.42;;;3.08;;
9409;SDS011;4744;52.576;13.568;2023-03-24T08:32:13;3.55;;;3.22;;
9409;SDS011;4744;52.576;13.568;2023-03-24T08:34:40;3.17;;;2.88;;
9409;SDS011;4744;52.576;13.568;2023-03-24T08:37:07;3.65;;;3.00;;
9409;SDS011;4744;52.576;13.568;2023-03-24T08:39:35;3.75;;;3.00;;
9409;SDS011;4744;52.576;13.568;2023-03-24T08:42:04;2.92;;;2.65;;
9409;SDS011;4744;52.576;13.568;2023-03-24T08:44:31;3.35;;;3.05;;
9409;SDS011;4744;52.576;13.568;2023-03-24T08:46:59;3.00;;;2.70;;
9409;SDS011;4744;52.576;13.568;2023-03-24T08:49:26;3.45;;;3.15;;
9409;SDS011;4744;52.576;13.568;2023-03-24T08:51:53;4.90;;;3.15;;
9409;SDS011;4744;52.576;13.568;2023-03-24T08:54:19;3.40;;;3.17;;
9409;SDS011;4744;52.576;13.568;2023-03-24T08:56:47;3.30;;;3.00;;
9409;SDS011;4744;52.576;13.568;2023-03-24T08:59:16;3.40;;;3.00;;
9409;SDS011;4744;52.576;13.568;2023-03-24T09:01:43;3.42;;;3.10;;
9409;SDS011;4744;52.576;13.568;2023-03-24T09:04:10;3.20;;;2.90;;
9409;SDS011;4744;52.576;13.568;2023-03-24T09:06:37;5.03;;;3.33;;
9409;SDS011;4744;52.576;13.568;2023-03-24T09:09:04;3.80;;;3.38;;
9409;SDS011;4744;52.576;13.568;2023-03-24T09:11:32;3.10;;;2.90;;
9409;SDS011;4744;52.576;13.568;2023-03-24T09:13:59;3.40;;;3.10;;
9409;SDS011;4744;52.576;13.568;2023-03-24T09:16:27;3.03;;;2.80;;
9409;SDS011;4744;52.576;13.568;2023-03-24T09:18:54;3.90;;;3.20;;
9409;SDS011;4744;52.576;13.568;2023-03-24T09:21:20;3.20;;;2.90;;
9409;SDS011;4744;52.576;13.568;2023-03-24T09:23:48;4.20;;;3.13;;
9409;SDS011;4744;52.576;13.568;2023-03-24T09:26:15;3.17;;;2.88;;
9409;SDS011;4744;52.576;13.568;2023-03-24T09:28:42;5.25;;;3.47;;
9409;SDS011;4744;52.576;13.568;2023-03-24T09:31:09;3.28;;;2.85;;
9409;SDS011;4744;52.576;13.568;2023-03-24T09:33:38;3.50;;;3.20;;
9409;SDS011;4744;52.576;13.568;2023-03-24T09:36:05;3.25;;;2.95;;
9409;SDS011;4744;52.576;13.568;2023-03-24T09:38:32;2.90;;;2.70;;
9409;SDS011;4744;52.576;13.568;2023-03-24T09:41:00;4.18;;;3.17;;
9409;SDS011;4744;52.576;13.568;2023-03-24T09:43:30;3.30;;;2.92;;
9409;SDS011;4744;52.576;13.568;2023-03-24T09:46:03;4.45;;;3.22;;
9409;SDS011;4744;52.576;13.568;2023-03-24T09:48:38;3.53;;;3.22;;
9409;SDS011;4744;52.576;13.568;2023-03-24T09:51:09;3.60;;;3.22;;
9409;SDS011;4744;52.576;13.568;2023-03-24T09:53:41;3.53;;;3.10;;
9409;SDS011;4744;52.576;13.568;2023-03-24T09:56:15;3.38;;;3.05;;
9409;SDS011;4744;52.576;13.568;2023-03-24T09:58:45;3.47;;;3.20;;
9409;SDS011;4744;52.576;13.568;2023-03-24T10:01:16;3.78;;;3.30;;
9409;SDS011;4744;52.576;13.568;2023-03-24T10:03:45;3.50;;;3.20;;
9409;SDS011;4744;52.576;13.568;2023-03-24T10:06:14;5.13;;;3.42;;
9409;SDS011;4744;52.576;13.568;2023-03-24T10:08:48;5.03;;;2.85;;
9409;SDS011;4744;52.576;13.568;2023-03-24T10:11:22;3.70;;;2.92;;
9409;SDS011;4744;52.576;13.568;2023-03-24T10:13:58;3.40;;;3.10;;
9409;SDS011;4744;52.576;13.568;2023-03-24T10:16:35;3.67;;;2.80;;
9409;SDS011;4744;52.576;13.568;2023-03-24T10:19:13;3.13;;;2.90;;
9409;SDS011;4744;52.576;13.568;2023-03-24T10:21:51;3.00;;;2.70;;
9409;SDS011;4744;52.576;13.568;2023-03-24T10:24:27;3.00;;;2.75;;
9409;SDS011;4744;52.576;13.568;2023-03-24T10:27:01;2.90;;;2.70;;
9409;SDS011;4744;52.576;13.568;2023-03-24T10:29:35;2.75;;;2.55;;
9409;SDS011;4744;52.576;13.568;2023-03-24T10:32:05;2.78;;;2.58;;
9409;SDS011;4744;52.576;13.568;2023-03-24T10:34:41;2.72;;;2.50;;
9409;SDS011;4744;52.576;13.568;2023-03-24T10:37:12;2.35;;;2.20;;
9409;SDS011;4744;52.576;13.568;2023-03-24T10:39:41;2.33;;;2.10;;
9409;SDS011;4744;52.576;13.568;2023-03-24T10:42:09;2.13;;;2.00;;
9409;SDS011;4744;52.576;13.568;2023-03-24T10:44:40;1.85;;;1.75;;
9409;SDS011;4744;52.576;13.568;2023-03-24T10:47:08;2.55;;;2.35;;
9409;SDS011;4744;52.576;13.568;2023-03-24T10:49:43;2.55;;;2.35;;
9409;SDS011;4744;52.576;13.568;2023-03-24T10:52:18;2.08;;;1.88;;
9409;SDS011;4744;52.576;13.568;2023-03-24T10:54:52;3.90;;;2.13;;
9409;SDS011;4744;52.576;13.568;2023-03-24T10:57:20;2.30;;;2.10;;
9409;SDS011;4744;52.576;13.568;2023-03-24T10:59:49;2.90;;;2.40;;
9409;SDS011;4744;52.576;13.568;2023-03-24T11:02:21;2.70;;;2.25;;
9409;SDS011;4744;52.576;13.568;2023-03-24T11:04:51;2.25;;;2.10;;
9409;SDS011;4744;52.576;13.568;2023-03-24T11:07:22;2.08;;;1.85;;
9409;SDS011;4744;52.576;13.568;2023-03-24T11:09:57;2.35;;;2.15;;
9409;SDS011;4744;52.576;13.568;2023-03-24T11:12:28;2.88;;;2.35;;
9409;SDS011;4744;52.576;13.568;2023-03-24T11:15:00;2.92;;;2.08;;
9409;SDS011;4744;52.576;13.568;2023-03-24T11:17:38;2.35;;;2.25;;
9409;SDS011;4744;52.576;13.568;2023-03-24T11:20:13;2.47;;;2.00;;
9409;SDS011;4744;52.576;13.568;2023-03-24T11:22:47;2.28;;;2.08;;
9409;SDS011;4744;52.576;13.568;2023-03-24T11:25:32;2.90;;;2.17;;
9409;SDS011;4744;52.576;13.568;2023-03-24T11:28:01;2.65;;;2.17;;
9409;SDS011;4744;52.576;13.568;2023-03-24T11:30:33;2.40;;;2.20;;
9409;SDS011;4744;52.576;13.568;2023-03-24T11:33:11;2.40;;;2.20;;
9409;SDS011;4744;52.576;13.568;2023-03-24T11:35:44;2.05;;;1.95;;
9409;SDS011;4744;52.576;13.568;2023-03-24T11:38:14;2.25;;;2.10;;
9409;SDS011;4744;52.576;13.568;2023-03-24T11:40:51;2.35;;;2.15;;
9409;SDS011;4744;52.576;13.568;2023-03-24T11:43:22;3.58;;;2.03;;
9409;SDS011;4744;52.576;13.568;2023-03-24T11:45:51;2.28;;;2.10;;
9409;SDS011;4744;52.576;13.568;2023-03-24T11:48:23;2.20;;;2.10;;
9409;SDS011;4744;52.576;13.568;2023-03-24T11:50:56;2.20;;;2.00;;
9409;SDS011;4744;52.576;13.568;2023-03-24T11:53:26;1.90;;;1.80;;
9409;SDS011;4744;52.576;13.568;2023-03-24T11:55:58;2.42;;;2.03;;
9409;SDS011;4744;52.576;13.568;2023-03-24T11:58:32;2.10;;;1.95;;
9409;SDS011;4744;52.576;13.568;2023-03-24T12:01:04;2.42;;;2.22;;
9409;SDS011;4744;52.576;13.568;2023-03-24T12:06:31;2.10;;;1.98;;
9409;SDS011;4744;52.576;13.568;2023-03-24T12:09:09;2.00;;;1.90;;
9409;SDS011;4744;52.576;13.568;2023-03-24T12:11:50;2.40;;;2.20;;
9409;SDS011;4744;52.576;13.568;2023-03-24T12:14:44;2.08;;;1.92;;
9409;SDS011;4744;52.576;13.568;2023-03-24T12:17:24;2.08;;;1.98;;
9409;SDS011;4744;52.576;13.568;2023-03-24T12:20:06;1.92;;;1.80;;
9409;SDS011;4744;52.576;13.568;2023-03-24T12:22:48;2.00;;;1.85;;
9409;SDS011;4744;52.576;13.568;2023-03-24T12:25:32;2.33;;;1.85;;
9409;SDS011;4744;52.576;13.568;2023-03-24T12:28:23;1.77;;;1.67;;
9409;SDS011;4744;52.576;13.568;2023-03-24T12:31:03;1.80;;;1.70;;
9409;SDS011;4744;52.576;13.568;2023-03-24T12:33:41;2.00;;;1.80;;
9409;SDS011;4744;52.576;13.568;2023-03-24T12:36:21;1.80;;;1.70;;
9409;SDS011;4744;52.576;13.568;2023-03-24T12:39:01;1.80;;;1.70;;
9409;SDS011;4744;52.576;13.568;2023-03-24T12:41:39;1.83;;;1.73;;
9409;SDS011;4744;52.576;13.568;2023-03-24T12:44:22;2.05;;;1.90;;
9409;SDS011;4744;52.576;13.568;2023-03-24T12:47:05;1.90;;;1.80;;
9409;SDS011;4744;52.576;13.568;2023-03-24T12:49:51;3.08;;;1.63;;
9409;SDS011;4744;52.576;13.568;2023-03-24T12:52:36;1.92;;;1.83;;
9409;SDS011;4744;52.576;13.568;2023-03-24T12:55:19;1.65;;;1.55;;
9409;SDS011;4744;52.576;13.568;2023-03-24T12:57:59;1.15;;;1.15;;
9409;SDS011;4744;52.576;13.568;2023-03-24T13:00:34;2.85;;;1.30;;
9409;SDS011;4744;52.576;13.568;2023-03-24T13:03:05;2.30;;;1.63;;
9409;SDS011;4744;52.576;13.568;2023-03-24T13:05:38;1.50;;;1.40;;
9409;SDS011;4744;52.576;13.568;2023-03-24T13:08:11;1.02;;;1.00;;
9409;SDS011;4744;52.576;13.568;2023-03-24T13:10:43;1.20;;;1.20;;
9409;SDS011;4744;52.576;13.568;2023-03-24T13:13:12;1.42;;;1.33;;
9409;SDS011;4744;52.576;13.568;2023-03-24T13:15:44;2.05;;;1.48;;
9409;SDS011;4744;52.576;13.568;2023-03-24T13:18:20;1.40;;;1.30;;
9409;SDS011;4744;52.576;13.568;2023-03-24T13:20:55;4.32;;;1.65;;
9409;SDS011;4744;52.576;13.568;2023-03-24T13:23:35;1.40;;;1.30;;
9409;SDS011;4744;52.576;13.568;2023-03-24T13:26:19;1.73;;;1.63;;
9409;SDS011;4744;52.576;13.568;2023-03-24T13:28:56;1.58;;;1.38;;
9409;SDS011;4744;52.576;13.568;2023-03-24T13:31:34;1.45;;;1.35;;
9409;SDS011;4744;52.576;13.568;2023-03-24T13:34:04;1.83;;;1.42;;
9409;SDS011;4744;52.576;13.568;2023-03-24T13:36:41;1.50;;;1.40;;
9409;SDS011;4744;52.576;13.568;2023-03-24T13:39:13;1.40;;;1.30;;
9409;SDS011;4744;52.576;13.568;2023-03-24T13:41:47;1.40;;;1.40;;
9409;SDS011;4744;52.576;13.568;2023-03-24T13:44:17;1.33;;;1.23;;
9409;SDS011;4744;52.576;13.568;2023-03-24T13:46:58;1.50;;;1.30;;
9409;SDS011;4744;52.576;13.568;2023-03-24T13:49:35;1.20;;;1.13;;
9409;SDS011;4744;52.576;13.568;2023-03-24T13:52:05;2.40;;;1.40;;
9409;SDS011;4744;52.576;13.568;2023-03-24T13:54:45;2.47;;;1.73;;
9409;SDS011;4744;52.576;13.568;2023-03-24T13:57:15;2.08;;;1.00;;
9409;SDS011;4744;52.576;13.568;2023-03-24T13:59:56;1.20;;;1.10;;
9409;SDS011;4744;52.576;13.568;2023-03-24T14:02:45;2.97;;;1.40;;
9409;SDS011;4744;52.576;13.568;2023-03-24T14:05:33;5.45;;;1.60;;
9409;SDS011;4744;52.576;13.568;2023-03-24T14:08:11;3.75;;;1.50;;
9409;SDS011;4744;52.576;13.568;2023-03-24T14:10:41;1.52;;;1.30;;
9409;SDS011;4744;52.576;13.568;2023-03-24T14:13:33;2.42;;;1.20;;
9409;SDS011;4744;52.576;13.568;2023-03-24T14:19:22;1.60;;;1.50;;
9409;SDS011;4744;52.576;13.568;2023-03-24T14:21:51;2.38;;;1.52;;
9409;SDS011;4744;52.576;13.568;2023-03-24T14:24:22;1.90;;;1.80;;
9409;SDS011;4744;52.576;13.568;2023-03-24T14:26:52;2.78;;;1.65;;
9409;SDS011;4744;52.576;13.568;2023-03-24T14:29:35;1.67;;;1.58;;
9409;SDS011;4744;52.576;13.568;2023-03-24T14:32:04;1.70;;;1.60;;
9409;SDS011;4744;52.576;13.568;2023-03-24T14:34:32;1.90;;;1.75;;
9409;SDS011;4744;52.576;13.568;2023-03-24T14:37:02;1.50;;;1.40;;
9409;SDS011;4744;52.576;13.568;2023-03-24T14:39:34;1.75;;;1.40;;
9409;SDS011;4744;52.576;13.568;2023-03-24T14:45:03;2.33;;;1.52;;
9409;SDS011;4744;52.576;13.568;2023-03-24T14:47:32;1.88;;;1.67;;
9409;SDS011;4744;52.576;13.568;2023-03-24T14:50:00;1.85;;;1.50;;
9409;SDS011;4744;52.576;13.568;2023-03-24T14:52:39;1.58;;;1.48;;
9409;SDS011;4744;52.576;13.568;2023-03-24T14:55:08;1.50;;;1.40;;
9409;SDS011;4744;52.576;13.568;2023-03-24T14:57:38;1.80;;;1.67;;
9409;SDS011;4744;52.576;13.568;2023-03-24T15:00:09;3.55;;;1.67;;
9409;SDS011;4744;52.576;13.568;2023-03-24T15:02:43;2.33;;;1.75;;
9409;SDS011;4744;52.576;13.568;2023-03-24T15:05:19;1.75;;;1.65;;
9409;SDS011;4744;52.576;13.568;2023-03-24T15:08:02;2.70;;;1.48;;
9409;SDS011;4744;52.576;13.568;2023-03-24T15:10:38;1.60;;;1.50;;
9409;SDS011;4744;52.576;13.568;2023-03-24T15:13:28;1.77;;;1.40;;
9409;SDS011;4744;52.576;13.568;2023-03-24T15:16:02;1.75;;;1.50;;
9409;SDS011;4744;52.576;13.568;2023-03-24T15:18:31;2.25;;;1.50;;
9409;SDS011;4744;52.576;13.568;2023-03-24T15:20:58;2.60;;;1.67;;
9409;SDS011;4744;52.576;13.568;2023-03-24T15:23:25;1.80;;;1.30;;
9409;SDS011;4744;52.576;13.568;2023-03-24T15:25:53;2.17;;;1.50;;
9409;SDS011;4744;52.576;13.568;2023-03-24T15:28:20;3.17;;;1.80;;
9409;SDS011;4744;52.576;13.568;2023-03-24T15:30:50;4.38;;;1.95;;
9409;SDS011;4744;52.576;13.568;2023-03-24T15:33:19;2.35;;;1.35;;
9409;SDS011;4744;52.576;13.568;2023-03-24T15:35:46;2.13;;;1.10;;
9409;SDS011;4744;52.576;13.568;2023-03-24T15:38:20;1.40;;;1.20;;
9409;SDS011;4744;52.576;13.568;2023-03-24T15:40:55;1.88;;;1.08;;
9409;SDS011;4744;52.576;13.568;2023-03-24T15:43:24;1.90;;;1.20;;
9409;SDS011;4744;52.576;13.568;2023-03-24T15:45:51;2.88;;;1.08;;
9409;SDS011;4744;52.576;13.568;2023-03-24T15:48:21;1.63;;;0.90;;
9409;SDS011;4744;52.576;13.568;2023-03-24T15:50:54;1.55;;;1.00;;
9409;SDS011;4744;52.576;13.568;2023-03-24T15:53:24;1.83;;;0.95;;